createdAt,value
2023-05-11T00:01:43.989Z,95289.31
2023-05-11T00:04:10.349Z,95294.97
2023-05-11T00:06:37.364Z,95286.88
2023-05-11T00:09:03.819Z,95284.72
2023-05-11T00:11:30.251Z,95286.88
2023-05-11T00:13:56.566Z,95283.66
2023-05-11T00:16:22.898Z,95287.69
2023-05-11T00:18:49.282Z,95285.25
2023-05-11T00:21:15.670Z,95287.16
2023-05-11T00:23:42.624Z,95281.75
2023-05-11T00:26:08.965Z,95283.63
2023-05-11T00:28:35.322Z,95278.22
2023-05-11T00:31:01.719Z,95281.75
2023-05-11T00:33:28.027Z,95278.75
2023-05-11T00:35:54.320Z,95278.22
2023-05-11T00:38:20.738Z,95270.09
2023-05-11T00:40:48.541Z,95277.41
2023-05-11T00:43:14.824Z,95277.66
2023-05-11T00:45:41.348Z,95277.66
2023-05-11T00:48:07.978Z,95276.06
2023-05-11T00:50:34.922Z,95265.50
2023-05-11T00:53:01.525Z,95266.03
2023-05-11T00:55:28.030Z,95266.03
2023-05-11T00:57:55.117Z,95266.84
2023-05-11T01:00:21.661Z,95257.13
2023-05-11T01:02:48.396Z,95264.97
2023-05-11T01:05:15.306Z,95263.88
2023-05-11T01:07:50.327Z,95262.25
2023-05-11T01:10:23.449Z,95262.81
2023-05-11T01:13:00.894Z,95255.25
2023-05-11T01:15:36.179Z,95259.56
2023-05-11T01:18:15.308Z,95260.66
2023-05-11T01:20:46.394Z,95263.34
2023-05-11T01:23:44.285Z,95262.00
2023-05-11T01:26:29.986Z,95259.00
2023-05-11T01:29:14.759Z,95258.19
2023-05-11T01:31:43.994Z,95259.81
2023-05-11T01:34:15.847Z,95254.13
2023-05-11T01:36:48.862Z,95257.94
2023-05-11T01:39:17.183Z,95254.66
2023-05-11T01:41:51.049Z,95261.69
2023-05-11T01:44:19.228Z,95253.31
2023-05-11T01:46:48.003Z,95253.06
2023-05-11T01:49:17.027Z,95255.47
2023-05-11T01:51:45.342Z,95251.41
2023-05-11T01:54:12.336Z,95249.53
2023-05-11T01:56:41.047Z,95255.47
2023-05-11T01:59:08.968Z,95250.09
2023-05-11T02:01:36.109Z,95255.22
2023-05-11T02:04:05.351Z,95249.00
2023-05-11T02:06:34.025Z,95252.78
2023-05-11T02:09:01.377Z,95247.13
2023-05-11T02:11:29.980Z,95244.97
2023-05-11T02:13:58.024Z,95244.44
2023-05-11T02:16:27.195Z,95247.94
2023-05-11T02:18:55.300Z,95248.47
2023-05-11T02:21:23.386Z,95251.47
2023-05-11T02:23:51.395Z,95250.38
2023-05-11T02:26:17.983Z,95250.91
2023-05-11T02:28:44.608Z,95250.63
2023-05-11T02:31:17.246Z,95252.22
2023-05-11T02:33:47.105Z,95245.47
2023-05-11T02:36:17.493Z,95243.31
2023-05-11T02:38:46.495Z,95252.25
2023-05-11T02:41:17.369Z,95241.44
2023-05-11T02:43:47.911Z,95244.97
2023-05-11T02:46:18.575Z,95237.13
2023-05-11T02:48:50.508Z,95230.94
2023-05-11T02:51:18.686Z,95245.28
2023-05-11T02:53:46.896Z,95235.81
2023-05-11T02:56:13.801Z,95236.94
2023-05-11T02:58:40.553Z,95240.16
2023-05-11T03:01:07.525Z,95240.69
2023-05-11T03:03:34.108Z,95237.75
2023-05-11T03:06:00.516Z,95235.06
2023-05-11T03:08:27.090Z,95238.88
2023-05-11T03:10:54.616Z,95232.41
2023-05-11T03:13:23.690Z,95230.50
2023-05-11T03:15:50.950Z,95228.63
2023-05-11T03:18:18.394Z,95232.94
2023-05-11T03:20:46.782Z,95238.34
2023-05-11T03:23:16.150Z,95229.97
2023-05-11T03:25:43.948Z,95227.28
2023-05-11T03:28:12.291Z,95232.16
2023-05-11T03:30:40.135Z,95229.19
2023-05-11T03:33:06.634Z,95217.31
2023-05-11T03:35:34.665Z,95221.13
2023-05-11T03:38:02.154Z,95224.09
2023-05-11T03:40:30.739Z,95216.25
2023-05-11T03:42:59.414Z,95225.13
2023-05-11T03:45:30.665Z,95224.63
2023-05-11T03:47:57.346Z,95213.56
2023-05-11T03:50:24.069Z,95214.66
2023-05-11T03:52:51.741Z,95212.75
2023-05-11T03:55:18.167Z,95209.78
2023-05-11T03:57:45.557Z,95214.66
2023-05-11T04:00:12.622Z,95206.53
2023-05-11T04:02:40.451Z,95210.59
2023-05-11T04:05:08.047Z,95207.63
2023-05-11T04:07:35.718Z,95207.63
2023-05-11T04:10:02.771Z,95206.31
2023-05-11T04:12:29.119Z,95208.44
2023-05-11T04:14:55.434Z,95205.72
2023-05-11T04:17:21.728Z,95208.97
2023-05-11T04:19:48.659Z,95208.72
2023-05-11T04:22:15.027Z,95203.56
2023-05-11T04:24:41.327Z,95206.28
2023-05-11T04:27:07.632Z,95212.25
2023-05-11T04:29:34.152Z,95206.31
2023-05-11T04:32:00.548Z,95219.78
2023-05-11T04:34:26.927Z,95219.03
2023-05-11T04:36:53.834Z,95206.00
2023-05-11T04:39:20.625Z,95212.53
2023-05-11T04:41:47.046Z,95212.81
2023-05-11T04:44:13.288Z,95220.66
2023-05-11T04:46:39.614Z,95218.22
2023-05-11T04:49:06.312Z,95212.81
2023-05-11T04:51:32.739Z,95217.94
2023-05-11T04:53:59.835Z,95221.19
2023-05-11T04:56:26.133Z,95216.88
2023-05-11T04:58:52.484Z,95220.38
2023-05-11T05:01:18.931Z,95220.66
2023-05-11T05:03:48.176Z,95224.97
2023-05-11T05:06:14.534Z,95217.66
2023-05-11T05:08:40.861Z,95224.44
2023-05-11T05:11:09.256Z,95226.84
2023-05-11T05:13:35.544Z,95225.50
2023-05-11T05:16:02.036Z,95222.75
2023-05-11T05:18:28.376Z,95222.50
2023-05-11T05:20:54.909Z,95233.34
2023-05-11T05:23:21.615Z,95239.81
2023-05-11T05:25:47.913Z,95229.00
2023-05-11T05:28:14.869Z,95229.78
2023-05-11T05:30:41.262Z,95223.31
2023-05-11T05:33:07.598Z,95228.22
2023-05-11T05:35:33.903Z,95237.66
2023-05-11T05:38:00.223Z,95235.78
2023-05-11T05:40:26.729Z,95235.78
2023-05-11T05:42:53.096Z,95246.56
2023-05-11T05:45:20.497Z,95237.63
2023-05-11T05:47:48.341Z,95239.00
2023-05-11T05:50:15.079Z,95234.69
2023-05-11T05:52:41.441Z,95236.25
2023-05-11T05:55:08.486Z,95234.69
2023-05-11T05:57:34.861Z,95238.75
2023-05-11T06:00:01.203Z,95242.53
2023-05-11T06:02:28.256Z,95246.03
2023-05-11T06:04:54.721Z,95243.06
2023-05-11T06:07:21.074Z,95235.78
2023-05-11T06:09:47.374Z,95239.81
2023-05-11T06:12:15.367Z,95240.09
2023-05-11T06:14:41.688Z,95245.22
2023-05-11T06:17:07.993Z,95247.88
2023-05-11T06:19:35.003Z,95238.75
2023-05-11T06:22:01.740Z,95244.38
2023-05-11T06:24:28.966Z,95244.38
2023-05-11T06:26:55.230Z,95248.47
2023-05-11T06:29:21.703Z,95246.84
2023-05-11T06:31:51.952Z,95246.53
2023-05-11T06:34:19.016Z,95248.69
2023-05-11T06:36:46.024Z,95248.13
2023-05-11T06:39:12.431Z,95258.16
2023-05-11T06:41:38.896Z,95243.28
2023-05-11T06:44:05.552Z,95247.59
2023-05-11T06:46:31.936Z,95240.84
2023-05-11T06:48:58.340Z,95241.97
2023-05-11T06:51:24.651Z,95249.22
2023-05-11T06:53:51.592Z,95243.00
2023-05-11T06:56:17.893Z,95241.94
2023-05-11T06:58:44.193Z,95244.59
2023-05-11T07:01:11.126Z,95241.34
2023-05-11T07:03:37.442Z,95241.13
2023-05-11T07:06:04.417Z,95248.38
2023-05-11T07:08:30.718Z,95239.44
2023-05-11T07:10:57.682Z,95240.03
2023-05-11T07:13:24.009Z,95245.72
2023-05-11T07:15:50.370Z,95243.81
2023-05-11T07:18:16.721Z,95250.31
2023-05-11T07:20:43.041Z,95251.13
2023-05-11T07:23:09.626Z,95252.16
2023-05-11T07:25:36.143Z,95244.84
2023-05-11T07:28:03.142Z,95244.31
2023-05-11T07:30:29.447Z,95244.31
2023-05-11T07:32:55.950Z,95244.03
2023-05-11T07:35:24.018Z,95241.88
2023-05-11T07:37:50.674Z,95252.94
2023-05-11T07:40:17.558Z,95252.88
2023-05-11T07:42:44.128Z,95240.09
2023-05-11T07:45:11.589Z,95243.31
2023-05-11T07:47:37.957Z,95246.59
2023-05-11T07:50:05.407Z,95247.94
2023-05-11T07:52:31.808Z,95250.34
2023-05-11T07:54:58.163Z,95247.19
2023-05-11T07:57:24.473Z,95251.69
2023-05-11T07:59:50.817Z,95244.94
2023-05-11T08:02:18.457Z,95246.50
2023-05-11T08:04:45.077Z,95248.63
2023-05-11T08:07:11.532Z,95252.63
2023-05-11T08:09:38.058Z,95244.28
2023-05-11T08:12:04.568Z,95243.75
2023-05-11T08:14:31.503Z,95251.06
2023-05-11T08:16:57.943Z,95251.84
2023-05-11T08:19:24.969Z,95252.31
2023-05-11T08:21:51.749Z,95243.75
2023-05-11T08:24:18.155Z,95250.19
2023-05-11T08:26:44.562Z,95247.44
2023-05-11T08:29:11.663Z,95241.75
2023-05-11T08:31:38.803Z,95238.91
2023-05-11T08:34:15.408Z,95239.75
2023-05-11T08:36:46.039Z,95236.94
2023-05-11T08:39:12.514Z,95231.22
2023-05-11T08:41:38.820Z,95232.00
2023-05-11T08:44:06.585Z,95229.88
2023-05-11T08:46:35.451Z,95234.41
2023-05-11T08:49:02.217Z,95227.53
2023-05-11T08:51:28.804Z,95224.47
2023-05-11T08:53:57.002Z,95226.50
2023-05-11T08:56:26.072Z,95228.28
2023-05-11T08:58:56.073Z,95231.63
2023-05-11T09:01:23.408Z,95240.22
2023-05-11T09:03:51.091Z,95231.75
2023-05-11T09:06:18.294Z,95232.88
2023-05-11T09:08:45.666Z,95231.91
2023-05-11T09:11:13.010Z,95237.97
2023-05-11T09:13:39.731Z,95241.69
2023-05-11T09:16:13.777Z,95236.13
2023-05-11T09:18:47.224Z,95236.09
2023-05-11T09:21:13.645Z,95233.09
2023-05-11T09:23:40.846Z,95232.81
2023-05-11T09:26:14.401Z,95231.44
2023-05-11T09:31:40.666Z,95235.91
2023-05-11T09:34:15.122Z,95225.00
2023-05-11T09:36:42.255Z,95224.16
2023-05-11T09:41:41.847Z,95225.63
2023-05-11T09:44:10.200Z,95224.94
2023-05-11T09:46:37.532Z,95225.00
2023-05-11T09:49:05.747Z,95222.38
2023-05-11T09:51:33.929Z,95226.16
2023-05-11T09:54:01.805Z,95222.19
2023-05-11T09:56:47.817Z,95218.31
2023-05-11T09:59:17.360Z,95224.19
2023-05-11T10:01:43.787Z,95221.59
2023-05-11T10:04:23.084Z,95226.38
2023-05-11T10:06:52.641Z,95216.84
2023-05-11T10:09:22.868Z,95213.91
2023-05-11T10:11:51.442Z,95214.44
2023-05-11T10:14:18.883Z,95220.28
2023-05-11T10:16:47.127Z,95218.81
2023-05-11T10:19:13.862Z,95221.28
2023-05-11T10:21:40.921Z,95221.25
2023-05-11T10:24:08.261Z,95217.91
2023-05-11T10:26:34.751Z,95223.78
2023-05-11T10:29:02.051Z,95214.63
2023-05-11T10:31:29.048Z,95222.41
2023-05-11T10:33:56.585Z,95218.53
2023-05-11T10:36:24.591Z,95220.75
2023-05-11T10:38:50.991Z,95211.16
2023-05-11T10:41:30.961Z,95202.84
2023-05-11T10:44:26.359Z,95203.63
2023-05-11T10:47:10.273Z,95212.47
2023-05-11T10:49:51.654Z,95215.94
2023-05-11T10:52:38.387Z,95208.84
2023-05-11T10:55:17.701Z,95209.59
2023-05-11T10:58:02.890Z,95209.66
2023-05-11T11:00:59.326Z,95210.19
2023-05-11T11:03:25.647Z,95206.97
2023-05-11T11:05:54.650Z,95209.91
2023-05-11T11:08:21.008Z,95217.56
2023-05-11T11:10:48.687Z,95213.09
2023-05-11T11:13:16.580Z,95205.06
2023-05-11T11:16:08.505Z,95206.00
2023-05-11T11:18:34.923Z,95209.31
2023-05-11T11:21:01.657Z,95203.06
2023-05-11T11:23:41.541Z,95208.72
2023-05-11T11:26:09.225Z,95208.81
2023-05-11T11:29:08.998Z,95213.72
2023-05-11T11:31:36.988Z,95206.25
2023-05-11T11:34:33.035Z,95207.09
2023-05-11T11:37:03.350Z,95203.72
2023-05-11T11:39:49.595Z,95205.38
2023-05-11T11:42:17.588Z,95206.13
2023-05-11T11:44:45.783Z,95220.19
2023-05-11T11:47:13.973Z,95210.75
2023-05-11T11:49:42.498Z,95212.00
2023-05-11T11:52:11.645Z,95210.91
2023-05-11T11:54:38.959Z,95214.34
2023-05-11T11:57:28.655Z,95213.09
2023-05-11T11:59:55.734Z,95207.88
2023-05-11T12:02:24.163Z,95204.00
2023-05-11T12:04:56.055Z,95199.81
2023-05-11T12:07:25.497Z,95194.72
2023-05-11T12:09:52.734Z,95204.69
2023-05-11T12:12:20.358Z,95201.13
2023-05-11T12:14:48.426Z,95204.13
2023-05-11T12:17:16.205Z,95202.41
2023-05-11T12:19:46.953Z,95202.41
2023-05-11T12:22:15.410Z,95200.38
2023-05-11T12:24:42.946Z,95193.25
2023-05-11T12:27:09.686Z,95203.63
2023-05-11T12:29:36.119Z,95200.06
2023-05-11T12:32:02.525Z,95198.63
2023-05-11T12:34:28.863Z,95197.16
2023-05-11T12:36:57.709Z,95196.78
2023-05-11T12:39:27.119Z,95194.66
2023-05-11T12:41:55.747Z,95189.19
2023-05-11T12:44:25.123Z,95186.81
2023-05-11T12:46:52.056Z,95192.19
2023-05-11T12:49:24.691Z,95185.41
2023-05-11T12:52:00.339Z,95184.78
2023-05-11T12:54:29.701Z,95176.38
2023-05-11T12:56:56.192Z,95182.63
2023-05-11T12:59:33.369Z,95183.28
2023-05-11T13:02:15.713Z,95187.06
2023-05-11T13:04:43.546Z,95178.59
2023-05-11T13:07:11.041Z,95174.50
2023-05-11T13:09:38.604Z,95179.03
2023-05-11T13:12:16.764Z,95175.78
2023-05-11T13:14:46.529Z,95178.06
2023-05-11T13:17:13.281Z,95178.22
2023-05-11T13:19:40.558Z,95170.31
2023-05-11T13:22:10.546Z,95169.06
2023-05-11T13:24:37.376Z,95163.41
2023-05-11T13:27:04.894Z,95168.78
2023-05-11T13:29:32.039Z,95163.03
2023-05-11T13:31:58.454Z,95165.41
2023-05-11T13:34:25.408Z,95163.19
2023-05-11T13:36:51.836Z,95171.41
2023-05-11T13:39:19.068Z,95164.13
2023-05-11T13:41:46.130Z,95163.50
2023-05-11T13:44:13.559Z,95161.41
2023-05-11T13:46:39.987Z,95158.22
2023-05-11T13:49:06.405Z,95156.16
2023-05-11T13:51:32.996Z,95171.81
2023-05-11T13:54:00.131Z,95165.34
2023-05-11T13:56:26.778Z,95162.94
2023-05-11T13:58:53.231Z,95161.97
2023-05-11T14:01:21.366Z,95153.78
2023-05-11T14:03:52.430Z,95160.78
2023-05-11T14:06:21.562Z,95151.88
2023-05-11T14:08:47.937Z,95153.41
2023-05-11T14:11:14.303Z,95158.19
2023-05-11T14:13:40.746Z,95149.78
2023-05-11T14:16:09.239Z,95150.72
2023-05-11T14:18:36.514Z,95154.47
2023-05-11T14:21:03.133Z,95153.59
2023-05-11T14:23:32.106Z,95153.59
2023-05-11T14:25:58.567Z,95155.88
2023-05-11T14:28:25.564Z,95151.03
2023-05-11T14:30:52.033Z,95152.00
2023-05-11T14:33:18.465Z,95155.34
2023-05-11T14:35:47.401Z,95156.00
2023-05-11T14:38:13.726Z,95151.69
2023-05-11T14:40:40.084Z,95154.53
2023-05-11T14:43:06.797Z,95151.59
2023-05-11T14:45:33.389Z,95158.34
2023-05-11T14:48:01.270Z,95151.06
2023-05-11T14:50:28.166Z,95156.34
2023-05-11T14:52:55.194Z,95157.88
2023-05-11T14:55:21.621Z,95161.16
2023-05-11T14:57:48.034Z,95157.59
2023-05-11T15:00:15.362Z,95155.88
2023-05-11T15:02:41.788Z,95158.06
2023-05-11T15:05:09.004Z,95154.66
2023-05-11T15:07:36.047Z,95153.97
2023-05-11T15:10:03.758Z,95159.34
2023-05-11T15:12:30.107Z,95155.53
2023-05-11T15:14:56.477Z,95155.22
2023-05-11T15:17:23.006Z,95152.22
2023-05-11T15:19:49.428Z,95157.34
2023-05-11T15:22:21.717Z,95157.16
2023-05-11T15:24:48.089Z,95157.34
2023-05-11T15:27:15.185Z,95162.31
2023-05-11T15:29:42.054Z,95157.16
2023-05-11T15:32:12.085Z,95168.53
2023-05-11T15:34:50.832Z,95167.22
2023-05-11T15:37:27.106Z,95164.50
2023-05-11T15:39:53.513Z,95160.94
2023-05-11T15:42:20.517Z,95161.44
2023-05-11T15:44:46.966Z,95163.06
2023-05-11T15:47:13.374Z,95165.72
2023-05-11T15:49:39.723Z,95166.22
2023-05-11T15:52:06.638Z,95171.63
2023-05-11T15:54:35.242Z,95170.84
2023-05-11T15:57:02.277Z,95164.16
2023-05-11T15:59:31.762Z,95168.63
2023-05-11T16:01:58.190Z,95161.59
2023-05-11T16:04:24.689Z,95160.31
2023-05-11T16:06:51.049Z,95164.69
2023-05-11T16:09:17.595Z,95153.53
2023-05-11T16:11:44.839Z,95152.50
2023-05-11T16:14:11.627Z,95164.44
2023-05-11T16:16:39.625Z,95163.88
2023-05-11T16:19:06.408Z,95161.50
2023-05-11T16:21:33.809Z,95163.91
2023-05-11T16:24:00.129Z,95165.78
2023-05-11T16:26:27.744Z,95162.78
2023-05-11T16:28:54.116Z,95170.09
2023-05-11T16:31:20.947Z,95167.38
2023-05-11T16:33:48.589Z,95167.09
2023-05-11T16:36:15.932Z,95168.63
2023-05-11T16:38:42.303Z,95162.94
2023-05-11T16:41:11.130Z,95168.06
2023-05-11T16:43:44.118Z,95152.38
2023-05-11T16:46:10.559Z,95149.03
2023-05-11T16:48:37.425Z,95156.59
2023-05-11T16:51:04.640Z,95154.38
2023-05-11T16:53:31.221Z,95150.25
2023-05-11T16:55:58.968Z,95151.38
2023-05-11T16:58:25.663Z,95153.59
2023-05-11T17:00:52.664Z,95150.50
2023-05-11T17:03:20.677Z,95153.78
2023-05-11T17:05:47.227Z,95151.16
2023-05-11T17:08:14.484Z,95148.50
2023-05-11T17:10:41.023Z,95150.41
2023-05-11T17:13:07.394Z,95140.38
2023-05-11T17:15:33.748Z,95142.00
2023-05-11T17:18:00.176Z,95138.47
2023-05-11T17:20:26.631Z,95141.19
2023-05-11T17:22:53.014Z,95144.06
2023-05-11T17:25:20.131Z,95141.19
2023-05-11T17:27:46.574Z,95144.63
2023-05-11T17:30:13.308Z,95148.34
2023-05-11T17:32:44.087Z,95142.94
2023-05-11T17:35:10.685Z,95136.69
2023-05-11T17:37:37.048Z,95138.69
2023-05-11T17:40:05.515Z,95138.13
2023-05-11T17:42:33.989Z,95136.28
2023-05-11T17:45:00.582Z,95139.09
2023-05-11T17:47:26.966Z,95136.59
2023-05-11T17:49:53.353Z,95145.81
2023-05-11T17:52:19.715Z,95143.34
2023-05-11T17:54:46.185Z,95147.38
2023-05-11T17:57:12.634Z,95142.25
2023-05-11T17:59:42.129Z,95140.34
2023-05-11T18:02:08.744Z,95137.84
2023-05-11T18:04:35.073Z,95145.41
2023-05-11T18:07:01.396Z,95145.41
2023-05-11T18:09:27.712Z,95147.91
2023-05-11T18:11:54.069Z,95145.75
2023-05-11T18:14:20.543Z,95143.63
2023-05-11T18:16:48.596Z,95149.41
2023-05-11T18:19:15.082Z,95148.66
2023-05-11T18:21:41.781Z,95146.81
2023-05-11T18:24:13.730Z,95146.66
2023-05-11T18:26:40.150Z,95153.97
2023-05-11T18:29:12.143Z,95149.69
2023-05-11T18:31:39.010Z,95152.16
2023-05-11T18:34:06.031Z,95157.84
2023-05-11T18:36:32.782Z,95146.00
2023-05-11T18:38:59.125Z,95154.13
2023-05-11T18:41:28.282Z,95153.88
2023-05-11T18:43:54.812Z,95148.75
2023-05-11T18:46:21.324Z,95154.16
2023-05-11T18:48:52.170Z,95151.19
2023-05-11T18:51:21.897Z,95158.44
2023-05-11T18:53:48.340Z,95146.69
2023-05-11T18:56:15.303Z,95153.72
2023-05-11T18:58:41.792Z,95157.19
2023-05-11T19:01:08.951Z,95163.06
2023-05-11T19:03:35.784Z,95156.03
2023-05-11T19:06:02.670Z,95160.91
2023-05-11T19:08:29.742Z,95160.47
2023-05-11T19:10:56.918Z,95164.56
2023-05-11T19:13:24.492Z,95159.72
2023-05-11T19:15:50.948Z,95152.97
2023-05-11T19:18:17.426Z,95165.50
2023-05-11T19:20:43.849Z,95163.59
2023-05-11T19:23:10.217Z,95167.38
2023-05-11T19:25:37.323Z,95170.66
2023-05-11T19:28:03.850Z,95160.41
2023-05-11T19:30:30.268Z,95162.00
2023-05-11T19:32:56.600Z,95165.81
2023-05-11T19:35:23.261Z,95165.56
2023-05-11T19:37:49.889Z,95164.75
2023-05-11T19:42:48.986Z,95166.38
2023-05-11T19:45:15.398Z,95169.38
2023-05-11T19:47:41.835Z,95170.94
2023-05-11T19:50:09.038Z,95175.59
2023-05-11T19:52:35.972Z,95169.38
2023-05-11T19:55:02.680Z,95174.25
2023-05-11T19:57:30.476Z,95170.22
2023-05-11T19:59:57.585Z,95172.94
2023-05-11T20:02:24.010Z,95166.78
2023-05-11T20:04:50.397Z,95172.13
2023-05-11T20:07:18.932Z,95171.03
2023-05-11T20:09:45.297Z,95176.44
2023-05-11T20:12:11.720Z,95166.78
2023-05-11T20:14:40.114Z,95174.38
2023-05-11T20:17:08.599Z,95173.53
2023-05-11T20:19:35.034Z,95174.84
2023-05-11T20:22:01.687Z,95171.09
2023-05-11T20:24:28.030Z,95171.91
2023-05-11T20:26:54.685Z,95166.53
2023-05-11T20:29:21.076Z,95165.72
2023-05-11T20:31:47.621Z,95165.44
2023-05-11T20:34:14.898Z,95164.53
2023-05-11T20:36:41.258Z,95160.16
2023-05-11T20:39:08.461Z,95160.44
2023-05-11T20:41:35.047Z,95164.31
2023-05-11T20:44:01.565Z,95175.94
2023-05-11T20:46:28.398Z,95168.09
2023-05-11T20:48:54.764Z,95162.34
2023-05-11T20:51:22.547Z,95164.06
2023-05-11T20:53:49.283Z,95153.28
2023-05-11T20:56:15.590Z,95158.41
2023-05-11T20:58:41.894Z,95158.94
2023-05-11T21:01:08.234Z,95155.69
2023-05-11T21:03:34.588Z,95162.22
2023-05-11T21:06:00.958Z,95158.13
2023-05-11T21:08:27.903Z,95146.78
2023-05-11T21:10:54.284Z,95156.50
2023-05-11T21:13:23.317Z,95156.22
2023-05-11T21:15:49.887Z,95148.38
2023-05-11T21:18:16.247Z,95144.88
2023-05-11T21:20:42.909Z,95150.03
2023-05-11T21:23:27.876Z,95144.38
2023-05-11T21:25:55.599Z,95149.81
2023-05-11T21:28:22.919Z,95151.19
2023-05-11T21:30:49.260Z,95150.41
2023-05-11T21:33:15.644Z,95151.78
2023-05-11T21:35:41.989Z,95145.53
2023-05-11T21:38:08.982Z,95145.88
2023-05-11T21:40:35.339Z,95151.03
2023-05-11T21:43:02.289Z,95141.53
2023-05-11T21:45:28.636Z,95154.22
2023-05-11T21:47:54.958Z,95152.63
2023-05-11T21:50:21.611Z,95153.94
2023-05-11T21:52:48.065Z,95164.50
2023-05-11T21:55:14.353Z,95160.41
2023-05-11T21:57:40.670Z,95161.00
2023-05-11T22:00:10.216Z,95165.13
2023-05-11T22:02:38.552Z,95169.19
2023-05-11T22:05:05.640Z,95157.28
2023-05-11T22:07:32.100Z,95154.63
2023-05-11T22:09:58.411Z,95152.44
2023-05-11T22:12:24.685Z,95155.97
2023-05-11T22:14:50.954Z,95159.81
2023-05-11T22:17:17.960Z,95165.50
2023-05-11T22:19:44.237Z,95164.94
2023-05-11T22:22:10.508Z,95161.69
2023-05-11T22:24:36.979Z,95163.31
2023-05-11T22:27:03.408Z,95168.72
2023-05-11T22:29:30.027Z,95167.09
2023-05-11T22:31:56.361Z,95171.94
2023-05-11T22:34:23.638Z,95172.03
2023-05-11T22:36:49.922Z,95162.31
2023-05-11T22:39:16.243Z,95171.25
2023-05-11T22:41:42.548Z,95167.47
2023-05-11T22:44:08.942Z,95166.38
2023-05-11T22:46:35.238Z,95170.44
2023-05-11T22:49:01.579Z,95173.72
2023-05-11T22:51:28.538Z,95169.91
2023-05-11T22:58:11.147Z,95167.75
2023-05-11T23:00:37.497Z,95175.59
2023-05-11T23:03:04.185Z,95161.06
2023-05-11T23:05:30.966Z,95177.84
2023-05-11T23:07:59.068Z,95172.38
2023-05-11T23:10:26.445Z,95169.38
2023-05-11T23:13:43.086Z,95168.25
2023-05-11T23:16:09.624Z,95167.75
2023-05-11T23:18:36.293Z,95161.53
2023-05-11T23:21:02.965Z,95172.13
2023-05-11T23:23:29.288Z,95164.53
2023-05-11T23:25:55.578Z,95156.66
2023-05-11T23:28:22.559Z,95164.50
2023-05-11T23:30:49.483Z,95163.69
2023-05-11T23:33:15.900Z,95156.09
2023-05-11T23:35:42.754Z,95164.50
2023-05-11T23:38:17.865Z,95154.25
2023-05-11T23:40:44.141Z,95153.97
2023-05-11T23:43:10.418Z,95157.22
2023-05-11T23:45:36.866Z,95157.47
2023-05-11T23:48:04.564Z,95156.69
2023-05-11T23:50:30.934Z,95150.25
2023-05-11T23:52:57.264Z,95147.84
2023-05-11T23:55:23.576Z,95147.03
2023-05-11T23:57:49.888Z,95146.16
